KFHR/FHR METAR and TAF weather

Enter ICAO airport designator
Station Type Date Time Source
KFHR METAR 2020/01/22 18:00 UTC NOAA

KFHR 221800Z AUTO 14010KT 10SM -RA OVC014 07/06 A3000 RMK AO2 RAB1754 P0000 T00720056


Station Type Date Time Source
KFHR Decoded METAR 2020/01/22 18:00 UTC NOAA

FRIDAY HARBOR AIRPORT, WA, United States (KFHR) 48-31N 123-02W 32M
Jan 22, 2020 - 01:00 PM EST / 2020.01.22 1800 UTC
Wind: from the SE (140 degrees) at 12 MPH (10 KT):0
Visibility: 10 mile(s):0
Sky conditions: overcast
Weather: light rain
Precipitation last hour: A trace
Temperature: 45.0 F (7.2 C)
Dew Point: 42.1 F (5.6 C)
Relative Humidity: 89%
Pressure (altimeter): 30 in. Hg (1015 hPa)
ob: KFHR 221800Z AUTO 14010KT 10SM -RA OVC014 07/06 A3000 RMK AO2 RAB1754 P0000 T00720056
cycle: 18

Station Type Date Time Source
KFHR TAF UTC NOAA

Error!

Example: see airport list